Latest Weather Observations for PORTABLE RFSNSW01

IDN60801

Issued at 12:43 pm EDT Thursday 20 January 2022 (issued every 10 minutes, with the page automatically refreshed every 10 minutes)

About weather observations | Map of weather stations | Latest weather observations for NSW | Other Formats
Station Details ID: 250043 Name: PORTABLE RFSNSW01 Lat: -33.59 Lon: 151.01 Height: 169.0 m

Portable automatic weather stations (PAWS) are operated by other organisations, such as Fire and Emergency Services, and are included here by agreement. Portable stations may be deployed to a location for a short period and their location may be subject to change without notice. Wind observations from these stations are provided from heights of either three (3) or ten (10) metres above ground level (AGL).

Data from the previous 72 hours. | See also: Recent months for locations in New South Wales
Date/Time
EDT
Temp
°C
App
Temp
°C
Dew
Point
°C
Rel
Hum
%
Delta-T
°C
Wind Press
QNH
hPa
Press
MSL
hPa
Rain since
9am
mm
Dir  Spd
km/h
Gust
km/h
Spd
kts
Gust
kts
20/12:30pm 19.9 17.7 14.5 71 3.2 SE 19 22 10 12 - - 0.0
20/12:20pm 20.6 19.0 14.9 70 3.4 SSE 17 24 9 13 - - 0.0
20/12:10pm 21.5 20.3 15.0 66 3.9 SE 15 20 8 11 - - 0.0
20/12:00pm 21.8 19.1 13.0 57 5.1 SE 19 22 10 12 - - 0.0
20/11:50am 22.6 20.2 12.7 53 5.7 SE 17 22 9 12 - - 0.0
20/11:40am 22.7 20.1 11.9 50 6.1 ESE 17 20 9 11 - - 0.0
20/11:30am 22.2 19.2 11.8 51 5.9 ESE 19 24 10 13 - - 0.0
20/11:20am 22.7 19.3 11.3 48 6.4 SE 20 26 11 14 - - 0.0
20/11:10am 23.3 21.0 11.6 47 6.6 SE 15 19 8 10 - - 0.0
20/11:00am 23.0 20.9 12.3 51 6.1 SE 15 17 8 9 - - 0.0
20/10:50am 22.2 19.1 11.7 51 5.9 SE 19 24 10 13 - - 0.0
20/10:40am 22.1 18.9 11.1 49 6.1 SE 19 22 10 12 - - 0.0
20/10:30am 21.9 19.3 12.0 53 5.6 SE 17 22 9 12 - - 0.0
20/10:20am 21.5 18.9 12.1 55 5.3 SE 17 22 9 12 - - 0.0
20/10:10am 21.6 18.4 11.8 53 5.5 SE 20 24 11 13 - - 0.0
20/10:00am 21.9 20.4 13.1 57 5.1 SE 13 20 7 11 - - 5.6
20/09:50am 21.5 20.5 13.3 59 4.7 SE 11 19 6 10 - - 5.6
20/09:40am 20.8 20.7 14.9 69 3.5 SE 9 15 5 8 - - 5.6
20/09:30am 19.9 19.4 13.7 67 3.6 SE 9 15 5 8 - - 5.6
20/09:20am 19.5 19.3 13.7 69 3.3 SE 7 9 4 5 - - 5.6
20/09:10am 19.2 18.7 13.7 70 3.2 ESE 9 11 5 6 - - 5.6
20/09:00am 19.0 18.2 13.9 72 2.9 ESE 11 17 6 9 - - 5.6
20/08:50am 18.8 18.6 14.6 76 2.5 SE 9 15 5 8 - - 5.6
20/08:40am 18.5 18.4 14.9 79 2.1 SE 9 11 5 6 - - 5.6
20/08:30am 18.1 18.3 14.8 81 1.9 SE 7 11 4 6 - - 5.6
20/08:20am 17.9 17.7 14.6 81 1.9 SE 9 13 5 7 - - 5.6
20/08:10am 17.9 17.6 14.5 80 2.0 SE 9 13 5 7 - - 5.6
20/08:00am 17.9 17.2 14.3 79 2.1 SE 11 13 6 7 - - 5.6
20/07:50am 18.1 16.1 13.9 76 2.4 ESE 17 20 9 11 - - 5.6
20/07:40am 18.9 17.9 13.4 70 3.1 ESE 11 15 6 8 - - 5.6
20/07:30am 19.0 18.2 12.8 67 3.5 SE 9 13 5 7 - - 5.6
20/07:20am 18.9 18.0 12.7 67 3.5 SE 9 11 5 6 - - 5.6
20/07:10am 18.9 18.0 12.6 67 3.6 SE 9 13 5 7 - - 5.6
20/07:00am 18.8 17.5 12.5 67 3.5 SE 11 15 6 8 - - 5.6
20/06:50am 18.8 17.9 12.5 67 3.5 SE 9 13 5 7 - - 5.6
20/06:40am 18.8 17.6 12.7 67 3.4 SE 11 15 6 8 - - 5.6
20/06:30am 18.6 17.7 12.5 67 3.4 SE 9 13 5 7 - - 5.6
20/06:20am 18.6 17.7 12.7 68 3.3 SE 9 11 5 6 - - 5.6
20/06:10am 18.7 17.9 12.8 68 3.3 SE 9 15 5 8 - - 5.6
20/06:00am 18.7 17.6 13.1 70 3.2 SE 11 13 6 7 - - 5.6
20/05:50am 18.7 18.0 13.3 71 3.1 SE 9 13 5 7 - - 5.6
20/05:40am 18.8 18.1 13.2 70 3.2 SE 9 13 5 7 - - 5.6
20/05:30am 18.8 17.7 13.0 69 3.3 SE 11 15 6 8 - - 5.6
20/05:20am 19.0 17.9 13.0 68 3.4 SE 11 17 6 9 - - 5.6
20/05:10am 19.0 17.9 13.2 69 3.3 SE 11 17 6 9 - - 5.6
20/05:00am 18.8 18.2 13.4 71 3.1 SE 9 17 5 9 - - 5.6
20/04:50am 18.9 17.7 13.9 73 2.9 SE 13 17 7 9 - - 5.6
20/04:40am 18.9 18.1 13.9 73 2.9 SE 11 15 6 8 - - 5.6
20/04:30am 18.9 18.1 14.0 73 2.8 SE 11 15 6 8 - - 5.6
20/04:20am 18.8 18.5 14.5 76 2.5 SE 9 15 5 8 - - 5.6
20/04:10am 18.9 17.9 14.5 75 2.6 SE 13 17 7 9 - - 5.6
20/04:00am 18.9 18.0 14.9 77 2.4 SE 13 17 7 9 - - 5.6
20/03:50am 18.8 18.2 14.5 76 2.5 SE 11 15 6 8 - - 5.6
20/03:40am 18.8 17.7 14.3 75 2.6 SE 13 17 7 9 - - 5.6
20/03:30am 18.8 17.5 13.7 72 2.9 SE 13 17 7 9 - - 5.6
20/03:20am 18.7 16.9 13.4 71 3.0 SE 15 19 8 10 - - 5.6
20/03:10am 18.6 16.9 13.5 72 2.9 SE 15 17 8 9 - - 5.6
20/03:00am 18.5 17.1 13.4 72 2.9 SE 13 17 7 9 - - 5.6
20/02:50am 18.1 17.1 13.4 74 2.7 SE 11 13 6 7 - - 5.6
20/02:40am 17.9 17.2 13.3 74 2.6 SSE 9 11 5 6 - - 5.6
20/02:30am 17.7 17.6 13.3 75 2.5 SSE 6 11 3 6 - - 5.6
20/02:20am 17.8 17.9 13.9 78 2.2 SSE 6 9 3 5 - - 5.6
20/02:10am 18.1 18.3 14.1 77 2.3 SSE 6 7 3 4 - - 5.6
20/02:00am 18.1 17.9 13.7 75 2.5 SE 7 9 4 5 - - 5.6
20/01:50am 18.0 18.0 14.3 79 2.1 SE 7 9 4 5 - - 5.6
20/01:40am 18.1 18.1 14.2 78 2.3 SE 7 11 4 6 - - 5.6
20/01:30am 18.4 18.0 14.1 76 2.5 SE 9 9 5 5 - - 5.6
20/01:20am 18.3 18.3 14.2 77 2.4 SE 7 11 4 6 - - 5.6
20/01:10am 18.2 18.3 14.4 78 2.2 SE 7 9 4 5 - - 5.6
20/01:00am 18.3 18.5 14.7 79 2.1 SE 7 9 4 5 - - 5.6
20/12:50am 18.2 18.3 14.4 78 2.2 SE 7 9 4 5 - - 5.6
20/12:40am 18.3 18.4 14.5 78 2.2 SSE 7 11 4 6 - - 5.6
20/12:30am 18.2 18.5 14.6 79 2.1 SSE 6 9 3 5 - - 5.6
20/12:20am 18.2 18.7 15.0 81 1.9 SE 6 9 3 5 - - 5.6
20/12:10am 17.9 18.1 14.8 82 1.8 SE 7 9 4 5 - - 5.6
20/12:00am 17.8 18.1 15.1 84 1.6 SE 7 9 4 5 - - 5.6
 
Date/Time
EDT
Temp
°C
App
Temp
°C
Dew
Point
°C
Rel
Hum
%
Delta-T
°C
Wind Press
QNH
hPa
Press
MSL
hPa
Rain since
9am
mm
Dir  Spd
km/h
Gust
km/h
Spd
kts
Gust
kts
19/11:50pm 17.4 18.4 15.4 88 1.2 SSE 4 6 2 3 - - 5.6
19/11:40pm 17.4 18.6 15.8 90 0.9 SSW 4 6 2 3 - - 5.6
19/11:30pm 17.4 18.5 15.7 90 1.0 S 4 6 2 3 - - 5.6
19/11:20pm 17.4 18.3 15.2 87 1.3 S 4 7 2 4 - - 5.6
19/11:10pm 17.3 17.8 15.1 87 1.3 SSE 6 7 3 4 - - 5.6
19/11:00pm 17.1 17.7 15.2 88 1.1 SSE 6 9 3 5 - - 5.6
19/10:50pm 16.9 18.0 15.7 93 0.7 SSE 4 6 2 3 - - 5.6
19/10:40pm 16.8 18.0 15.9 94 0.5 S 4 4 2 2 - - 5.6
19/10:30pm 16.8 18.0 15.9 94 0.5 SSE 4 7 2 4 - - 5.6
19/10:20pm 16.8 18.4 15.9 94 0.5 S 2 4 1 2 - - 5.6
19/10:10pm 17.0 18.2 16.0 94 0.6 S 4 4 2 2 - - 5.6
19/10:00pm 17.1 18.3 16.0 93 0.7 S 4 4 2 2 - - 5.6
19/09:50pm 17.2 18.5 16.1 93 0.7 S 4 6 2 3 - - 5.6
19/09:40pm 17.3 18.2 16.1 93 0.7 SE 6 7 3 4 - - 5.6
19/09:30pm 17.2 18.5 16.2 94 0.6 SSE 4 7 2 4 - - 5.4
19/09:20pm 17.2 18.5 16.1 93 0.7 SSE 4 6 2 3 - - 5.4
19/09:10pm 17.2 18.2 16.4 95 0.5 SSE 6 7 3 4 - - 5.4
19/09:00pm 17.3 18.1 16.3 94 0.6 SSE 7 9 4 5 - - 5.4
19/08:50pm 17.4 18.2 16.4 94 0.6 ESE 7 9 4 5 - - 5.4
19/08:40pm 17.5 18.3 16.4 93 0.7 SE 7 9 4 5 - - 5.0
19/08:30pm 17.5 18.6 16.6 94 0.5 SSE 6 11 3 6 - - 4.8
19/08:20pm 17.6 18.7 16.5 93 0.7 ESE 6 7 3 4 - - 4.6
19/08:10pm 17.6 19.1 16.6 94 0.6 SSE 4 6 2 3 - - 4.4
19/08:00pm 17.6 19.1 16.6 94 0.6 SSE 4 6 2 3 - - 4.4
19/07:50pm 17.7 18.8 16.6 93 0.7 SSE 6 7 3 4 - - 4.4
19/07:40pm 17.8 18.8 16.4 91 0.8 SSE 6 7 3 4 - - 4.2
19/07:30pm 17.8 18.8 16.3 91 0.9 SSE 6 7 3 4 - - 4.2
19/07:20pm 17.9 18.6 16.2 90 1.0 SSE 7 11 4 6 - - 4.2
19/07:10pm 18.0 18.8 15.9 87 1.3 SSE 6 9 3 5 - - 4.2
19/07:00pm 18.1 18.2 15.4 84 1.6 SSE 9 13 5 7 - - 4.2
19/06:50pm 18.1 18.1 15.2 83 1.7 SE 9 13 5 7 - - 4.2
19/06:40pm 18.1 16.6 15.3 84 1.7 SE 17 28 9 15 - - 4.2
19/06:30pm 18.6 17.6 15.6 83 1.8 SE 15 26 8 14 - - 4.2
19/06:20pm 18.9 19.0 16.4 85 1.5 SE 11 17 6 9 - - 4.0
19/06:10pm 19.4 19.3 16.1 81 2.0 SE 11 15 6 8 - - 4.0
19/06:00pm 19.5 19.9 16.2 81 2.0 SE 9 13 5 7 - - 4.0
19/05:50pm 19.2 19.5 16.1 82 1.9 SE 9 11 5 6 - - 4.0
19/05:40pm 19.0 19.4 16.3 84 1.6 SE 9 11 5 6 - - 4.0
19/05:30pm 18.8 19.4 16.7 87 1.3 ESE 9 11 5 6 - - 4.0
19/05:20pm 18.5 18.6 16.6 89 1.1 ESE 11 17 6 9 - - 4.0
19/05:10pm 18.5 17.5 16.5 88 1.2 SE 17 22 9 12 - - 4.0
19/05:00pm 19.3 18.7 16.7 85 1.6 SE 15 22 8 12 - - 3.8
19/04:50pm 19.9 20.2 17.0 83 1.8 SE 11 15 6 8 - - 3.6
19/04:40pm 19.6 20.5 17.5 88 1.3 SE 9 13 5 7 - - 3.6
19/04:30pm 19.2 19.3 17.5 90 1.0 SE 13 20 7 11 - - 3.6
19/04:20pm 19.7 20.2 17.4 86 1.4 SE 11 13 6 7 - - 3.6
19/04:10pm 20.1 19.6 17.0 82 1.9 SE 15 19 8 10 - - 3.2
19/04:00pm 20.5 20.0 16.9 80 2.2 SE 15 19 8 10 - - 3.2
19/03:50pm 20.8 21.1 17.1 79 2.3 SE 11 13 6 7 - - 3.2
19/03:40pm 21.0 21.5 17.4 80 2.2 SE 11 17 6 9 - - 3.2
19/03:30pm 21.3 22.7 18.6 84 1.7 SE 9 15 5 8 - - 3.2
19/03:20pm 21.2 22.4 18.2 83 1.9 SE 9 13 5 7 - - 3.2
19/03:10pm 20.5 21.7 18.2 87 1.4 SE 9 13 5 7 - - 3.2
19/03:00pm 19.5 20.1 17.8 90 1.1 SE 11 15 6 8 - - 3.2
19/02:50pm 19.7 19.9 17.6 88 1.3 ESE 13 22 7 12 - - 2.4
19/02:40pm 20.6 20.2 17.1 80 2.1 SE 15 24 8 13 - - 2.0
19/02:30pm 21.4 21.7 17.0 76 2.7 SE 11 15 6 8 - - 1.8
19/02:20pm 21.0 21.1 17.5 80 2.2 SE 13 19 7 10 - - 1.8
19/02:10pm 20.9 21.6 17.0 78 2.4 SSE 9 15 5 8 - - 1.8
19/02:00pm 21.1 23.2 18.9 87 1.4 SSE 6 7 3 4 - - 1.8
19/01:50pm 20.7 23.2 19.1 90 1.0 S 4 6 2 3 - - 1.8
19/01:40pm 20.1 22.2 18.9 93 0.8 SSE 6 9 3 5 - - 1.8
19/01:30pm 19.7 22.1 18.7 94 0.6 SSE 4 7 2 4 - - 1.8
19/01:20pm 19.3 21.6 18.6 96 0.4 S 4 7 2 4 - - 1.8
19/01:10pm 19.1 21.3 18.3 95 0.5 S 4 7 2 4 - - 1.8
19/01:00pm 19.0 20.7 18.1 94 0.6 SSE 6 9 3 5 - - 1.6
19/12:50pm 19.0 20.5 18.0 94 0.6 SSE 7 9 4 5 - - 1.4
19/12:40pm 19.0 20.5 18.1 94 0.6 SSE 7 11 4 6 - - 1.0
19/12:30pm 19.3 21.0 18.1 93 0.7 SSE 6 11 3 6 - - 0.8
19/12:20pm 19.5 21.0 18.0 91 0.9 SSE 7 11 4 6 - - 0.6
19/12:10pm 19.7 21.3 18.2 91 0.9 SSE 7 9 4 5 - - 0.6
19/12:00pm 20.0 21.7 18.5 91 0.9 SSE 7 11 4 6 - - 0.4
19/11:50am 20.1 22.0 18.9 93 0.8 SSE 7 11 4 6 - - 0.4
19/11:40am 19.8 21.6 18.3 91 0.9 SSE 6 13 3 7 - - 0.4
19/11:30am 19.4 20.9 18.1 92 0.8 SSE 7 13 4 7 - - 0.4
19/11:20am 19.2 21.0 18.3 94 0.6 SSE 6 9 3 5 - - 0.2
19/11:10am 19.1 20.9 18.3 95 0.5 SSE 6 9 3 5 - - 0.2
19/11:00am 19.0 20.6 18.2 95 0.5 SSE 7 11 4 6 - - 0.0
19/10:50am 18.7 20.4 18.1 96 0.4 S 6 9 3 5 - - 0.0
19/10:40am 18.3 19.9 17.8 97 0.3 S 6 7 3 4 - - 0.0
19/10:30am 18.2 19.7 17.7 97 0.3 S 6 7 3 4 - - 0.0
19/10:20am 18.3 19.9 17.8 97 0.3 S 6 7 3 4 - - 0.0
19/10:10am 18.0 19.5 17.6 97 0.2 S 6 9 3 5 - - 0.0
19/10:00am 17.9 19.2 17.5 97 0.2 S 7 9 4 5 - - 19.2
19/09:50am 17.8 19.2 17.4 97 0.2 S 6 11 3 6 - - 19.0
19/09:40am 17.7 18.9 17.3 97 0.2 S 7 9 4 5 - - 18.8
19/09:30am 17.6 18.9 17.2 97 0.2 S 6 9 3 5 - - 18.6
19/09:20am 17.5 18.6 17.1 97 0.2 S 7 9 4 5 - - 18.0
19/09:10am 17.6 18.7 17.2 97 0.2 S 7 9 4 5 - - 17.4
19/09:00am 17.6 19.0 17.3 98 0.2 S 6 7 3 4 - - 16.6
19/08:50am 17.5 18.8 17.2 98 0.2 S 6 9 3 5 - - 16.0
19/08:40am 17.5 18.8 17.2 98 0.2 S 6 9 3 5 - - 15.6
19/08:30am 17.5 18.8 17.2 98 0.2 S 6 7 3 4 - - 15.6
19/08:20am 17.5 18.8 17.2 98 0.2 S 6 9 3 5 - - 15.6
19/08:10am 17.5 19.2 17.2 98 0.2 S 4 7 2 4 - - 15.4
19/08:00am 17.4 18.7 17.1 98 0.2 S 6 9 3 5 - - 15.2
19/07:50am 17.4 18.7 17.0 97 0.2 S 6 9 3 5 - - 15.2
19/07:40am 17.4 18.7 17.0 97 0.2 S 6 9 3 5 - - 15.0
19/07:30am 17.3 18.4 17.0 98 0.2 S 7 9 4 5 - - 14.8
19/07:20am 17.4 18.7 17.1 98 0.2 S 6 9 3 5 - - 14.6
19/07:10am 17.5 18.6 17.2 98 0.2 S 7 11 4 6 - - 14.4
19/07:00am 17.5 18.8 17.2 98 0.2 S 6 7 3 4 - - 14.0
19/06:50am 17.6 18.7 17.2 97 0.2 S 7 11 4 6 - - 14.0
19/06:40am 17.6 18.9 17.2 97 0.2 S 6 11 3 6 - - 14.0
19/06:30am 17.6 18.9 17.2 97 0.2 S 6 9 3 5 - - 13.8
19/06:20am 17.7 18.9 17.3 97 0.2 S 7 7 4 4 - - 13.8
19/06:10am 17.8 19.2 17.4 97 0.2 S 6 9 3 5 - - 13.8
19/06:00am 17.9 19.4 17.5 97 0.2 S 6 11 3 6 - - 13.8
19/05:50am 17.9 19.2 17.5 97 0.2 S 7 9 4 5 - - 13.8
19/05:40am 17.9 19.1 17.4 97 0.3 S 7 13 4 7 - - 13.8
19/05:30am 17.9 18.7 17.4 97 0.3 SSE 9 11 5 6 - - 13.6
19/05:20am 18.0 19.3 17.5 97 0.3 SSE 7 9 4 5 - - 13.4
19/05:10am 18.1 19.0 17.6 97 0.3 SSE 9 13 5 7 - - 13.2
19/05:00am 18.2 19.6 17.7 97 0.3 S 7 11 4 6 - - 12.8
19/04:50am 18.3 19.7 17.7 96 0.4 SSE 7 11 4 6 - - 12.2
19/04:40am 18.3 19.3 17.7 96 0.4 SSE 9 13 5 7 - - 12.0
19/04:30am 18.3 18.5 17.6 96 0.4 SSE 13 17 7 9 - - 12.0
19/04:20am 18.4 19.0 17.7 96 0.4 SSE 11 15 6 8 - - 12.0
19/04:10am 18.4 19.4 17.8 96 0.4 SSE 9 13 5 7 - - 12.0
19/04:00am 18.5 19.2 17.9 96 0.4 SSE 11 13 6 7 - - 12.0
19/03:50am 18.5 19.6 17.9 96 0.4 SSE 9 15 5 8 - - 12.0
19/03:40am 18.5 19.6 18.0 97 0.3 SSE 9 13 5 7 - - 11.8
19/03:30am 18.5 19.2 18.0 97 0.3 SSE 11 19 6 10 - - 11.8
19/03:20am 18.6 19.7 18.1 97 0.3 SSE 9 11 5 6 - - 11.6
19/03:10am 18.7 19.9 18.2 97 0.3 SSE 9 11 5 6 - - 11.4
19/03:00am 18.7 19.6 18.3 98 0.2 SE 11 15 6 8 - - 11.4
19/02:50am 18.8 20.1 18.4 98 0.2 SSE 9 15 5 8 - - 11.2
19/02:40am 18.8 20.1 18.4 98 0.2 SSE 9 13 5 7 - - 10.8
19/02:30am 18.8 20.1 18.4 98 0.2 SSE 9 11 5 6 - - 10.6
19/02:20am 18.8 20.0 18.3 97 0.3 SSE 9 13 5 7 - - 10.4
19/02:10am 18.8 20.5 18.4 98 0.2 SSE 7 11 4 6 - - 10.4
19/02:00am 18.9 20.2 18.4 97 0.3 SSE 9 11 5 6 - - 10.4
19/01:50am 18.9 19.8 18.4 97 0.3 SSE 11 15 6 8 - - 10.4
19/01:40am 18.9 20.2 18.4 97 0.3 SSE 9 11 5 6 - - 10.4
19/01:30am 19.0 19.9 18.4 96 0.4 SSE 11 13 6 7 - - 10.4
19/01:20am 19.0 19.9 18.5 97 0.3 SSE 11 17 6 9 - - 10.2
19/01:10am 19.1 20.8 18.6 97 0.3 SSE 7 9 4 5 - - 10.2
19/01:00am 19.1 20.5 18.6 97 0.3 SSE 9 13 5 7 - - 10.2
19/12:50am 19.1 20.1 18.6 97 0.3 SSE 11 15 6 8 - - 10.2
19/12:40am 19.2 20.6 18.7 97 0.3 SSE 9 15 5 8 - - 10.0
19/12:30am 19.2 21.0 18.7 97 0.3 SE 7 9 4 5 - - 10.0
19/12:20am 19.2 20.2 18.7 97 0.3 SE 11 15 6 8 - - 10.0
19/12:10am 19.2 20.2 18.6 96 0.4 SE 11 15 6 8 - - 9.8
19/12:00am 19.2 20.6 18.7 97 0.3 SSE 9 11 5 6 - - 9.8
 
Date/Time
EDT
Temp
°C
App
Temp
°C
Dew
Point
°C
Rel
Hum
%
Delta-T
°C
Wind Press
QNH
hPa
Press
MSL
hPa
Rain since
9am
mm
Dir  Spd
km/h
Gust
km/h
Spd
kts
Gust
kts
18/11:50pm 19.2 20.6 18.7 97 0.3 SSE 9 13 5 7 - - 9.8
18/11:40pm 19.2 20.2 18.7 97 0.3 SE 11 15 6 8 - - 9.8
18/11:30pm 19.2 20.6 18.7 97 0.3 SE 9 15 5 8 - - 9.8
18/11:20pm 19.3 20.8 18.8 97 0.3 SE 9 15 5 8 - - 9.8
18/11:10pm 19.3 20.4 18.8 97 0.3 SE 11 15 6 8 - - 9.6
18/11:00pm 19.4 20.9 18.9 97 0.3 SE 9 13 5 7 - - 9.6
18/10:50pm 19.4 20.6 19.0 98 0.3 SSE 11 15 6 8 - - 9.6
18/10:40pm 19.5 21.0 19.0 97 0.3 SSE 9 13 5 7 - - 9.6
18/10:30pm 19.5 21.0 19.0 97 0.3 SSE 9 13 5 7 - - 9.6
18/10:20pm 19.5 21.5 19.1 98 0.3 SE 7 13 4 7 - - 9.6
18/10:10pm 19.5 21.1 19.1 98 0.3 SSE 9 11 5 6 - - 9.6
18/10:00pm 19.5 21.1 19.1 98 0.3 SSE 9 11 5 6 - - 9.6
18/09:50pm 19.5 21.5 19.2 98 0.2 SE 7 13 4 7 - - 9.6
18/09:40pm 19.6 21.2 19.2 98 0.3 SE 9 13 5 7 - - 9.6
18/09:30pm 19.6 21.7 19.3 98 0.2 SE 7 11 4 6 - - 9.6
18/09:20pm 19.7 21.4 19.3 98 0.3 SSE 9 13 5 7 - - 9.4
18/09:10pm 19.8 21.6 19.5 98 0.2 SSE 9 11 5 6 - - 9.4
18/09:00pm 19.9 22.1 19.6 98 0.2 SSE 7 7 4 4 - - 9.4
18/08:50pm 20.0 22.4 19.6 98 0.3 SSE 6 11 3 6 - - 9.0
18/08:40pm 20.0 22.4 19.7 98 0.2 SSE 6 7 3 4 - - 8.4
18/08:30pm 20.0 22.4 19.7 98 0.2 SE 6 6 3 3 - - 8.0
18/08:20pm 20.0 22.4 19.6 98 0.3 SSE 6 7 3 4 - - 7.4
18/08:10pm 20.0 22.4 19.6 98 0.3 SSE 6 7 3 4 - - 6.0
18/08:00pm 20.0 22.4 19.6 98 0.3 SSE 6 7 3 4 - - 5.6
18/07:50pm 20.0 22.2 19.6 98 0.3 SSE 7 11 4 6 - - 5.2
18/07:40pm 20.0 22.2 19.5 97 0.3 SSE 7 11 4 6 - - 5.2
18/07:30pm 20.0 22.2 19.5 97 0.3 SSE 7 11 4 6 - - 5.2
18/07:20pm 20.0 22.3 19.5 97 0.3 SSE 6 7 3 4 - - 5.0
18/07:10pm 20.0 22.2 19.5 97 0.3 SE 7 11 4 6 - - 5.0
18/07:00pm 20.1 21.9 19.5 96 0.4 SE 9 11 5 6 - - 5.0
18/06:50pm 20.1 21.9 19.5 96 0.4 SE 9 15 5 8 - - 5.0
18/06:40pm 20.2 22.0 19.6 96 0.4 SE 9 13 5 7 - - 4.8
18/06:30pm 20.2 21.6 19.5 96 0.4 SE 11 15 6 8 - - 4.6
18/06:20pm 20.3 22.1 19.6 96 0.4 SE 9 13 5 7 - - 4.4
18/06:10pm 20.3 22.5 19.7 96 0.4 SE 7 11 4 6 - - 4.4
18/06:00pm 20.3 21.7 19.5 95 0.5 SE 11 13 6 7 - - 4.4
18/05:50pm 20.4 21.8 19.5 95 0.6 SE 11 15 6 8 - - 4.4
18/05:40pm 20.4 21.8 19.5 95 0.6 ESE 11 15 6 8 - - 4.2
18/05:30pm 20.4 22.3 19.7 96 0.4 ESE 9 13 5 7 - - 4.2
18/05:20pm 20.4 22.3 19.7 96 0.4 ESE 9 11 5 6 - - 4.0
18/05:10pm 20.5 21.6 19.7 95 0.5 ESE 13 17 7 9 - - 3.8
18/05:00pm 20.5 21.6 19.6 95 0.6 ESE 13 17 7 9 - - 3.4
18/04:50pm 20.6 22.5 19.7 95 0.6 SE 9 13 5 7 - - 3.0
18/04:40pm 20.7 22.6 19.8 95 0.6 ESE 9 15 5 8 - - 2.4
18/04:30pm 20.7 21.8 19.7 94 0.6 ESE 13 15 7 8 - - 2.0
18/04:20pm 20.9 22.5 19.9 94 0.6 ESE 11 15 6 8 - - 1.6
18/04:10pm 21.2 22.9 20.1 93 0.7 ESE 11 13 6 7 - - 1.4
18/04:00pm 21.4 23.1 20.1 92 0.8 ESE 11 15 6 8 - - 1.2
18/03:50pm 21.5 23.1 20.0 91 1.0 SE 11 15 6 8 - - 0.8
18/03:40pm 21.9 23.6 20.1 89 1.2 ESE 11 15 6 8 - - 0.6
18/03:30pm 22.2 23.9 20.2 88 1.3 ESE 11 13 6 7 - - 0.4
18/03:20pm 22.6 24.8 20.3 87 1.5 ESE 9 13 5 7 - - 0.4
18/03:10pm 22.8 24.9 20.1 85 1.8 SE 9 11 5 6 - - 0.4
18/03:00pm 22.9 24.3 19.5 81 2.2 SE 11 13 6 7 - - 0.4
18/02:50pm 23.0 25.1 20.1 84 1.9 SE 9 13 5 7 - - 0.4
18/02:40pm 23.1 25.3 20.3 84 1.8 SE 9 11 5 6 - - 0.4
18/02:30pm 23.3 25.5 20.3 83 2.0 ESE 9 13 5 7 - - 0.4
18/02:20pm 23.4 25.5 20.1 82 2.1 ESE 9 11 5 6 - - 0.4
18/02:10pm 23.6 25.8 20.3 82 2.2 ESE 9 13 5 7 - - 0.4
18/02:00pm 23.5 25.7 20.3 82 2.1 SE 9 13 5 7 - - 0.4
18/01:50pm 23.6 26.0 20.1 81 2.3 SSE 7 9 4 5 - - 0.4
18/01:40pm 23.6 26.4 20.4 82 2.1 SSE 6 9 3 5 - - 0.4
18/01:30pm 23.5 26.2 20.6 84 1.9 SE 7 9 4 5 - - 0.4
18/01:20pm 23.5 26.1 20.4 83 2.0 SE 7 9 4 5 - - 0.4
18/01:10pm 23.9 26.5 20.4 81 2.3 SE 7 9 4 5 - - 0.4
18/01:00pm 24.1 27.1 20.9 82 2.1 S 6 7 3 4 - - 0.4
18/12:50pm 24.0 26.9 20.7 82 2.2 SSE 6 9 3 5 - - 0.4
18/12:40pm 23.9 26.2 20.7 82 2.1 SE 9 11 5 6 - - 0.4
18/12:30pm 23.7 25.6 20.5 82 2.1 SE 11 13 6 7 - - 0.4
18/12:20pm 23.8 25.7 20.6 82 2.1 SE 11 13 6 7 - - 0.4
18/12:10pm 23.8 25.7 20.5 82 2.2 SE 11 15 6 8 - - 0.4
18/12:00pm 24.1 26.9 20.9 82 2.1 SE 7 11 4 6 - - 0.4
18/11:50am 24.0 26.8 20.9 83 2.0 SSE 7 11 4 6 - - 0.4
18/11:40am 23.9 27.0 21.0 84 1.9 SSE 6 7 3 4 - - 0.4
18/11:30am 23.5 26.5 21.2 87 1.5 SSE 7 7 4 4 - - 0.4
18/11:20am 23.5 26.9 21.6 89 1.3 SSE 6 9 3 5 - - 0.4
18/11:10am 23.2 25.7 21.0 87 1.4 SE 9 13 5 7 - - 0.4
18/11:00am 23.3 26.2 21.0 87 1.5 SE 7 9 4 5 - - 0.2
18/10:50am 23.7 26.9 21.3 86 1.6 SE 6 7 3 4 - - 0.2
18/10:40am 23.5 26.4 21.0 86 1.6 SE 7 9 4 5 - - 0.2
18/10:30am 23.2 26.1 21.0 87 1.4 SSE 7 11 4 6 - - 0.2
18/10:20am 23.1 25.5 20.9 87 1.4 SSE 9 11 5 6 - - 0.2
18/10:10am 23.2 26.0 20.8 86 1.6 SSE 7 9 4 5 - - 0.2
18/10:00am 23.2 26.1 21.1 88 1.4 SSE 7 9 4 5 - - 0.0
18/09:50am 23.4 26.4 20.8 85 1.7 SSE 6 7 3 4 - - 0.0
18/09:40am 23.4 26.0 20.4 83 2.0 SSE 7 13 4 7 - - 0.0
18/09:30am 23.5 26.1 20.4 83 2.0 SSE 7 9 4 5 - - 0.0
18/09:20am 23.6 26.2 20.4 82 2.1 SSE 7 11 4 6 - - 0.0
18/09:10am 23.7 25.9 20.5 82 2.1 SSE 9 11 5 6 - - 0.0
18/09:00am 24.0 26.9 20.7 82 2.2 SSE 6 7 3 4 - - 0.0
18/08:50am 23.8 26.1 20.7 83 2.0 SE 9 11 5 6 - - 0.0
18/08:40am 23.9 26.1 20.5 81 2.2 SE 9 11 5 6 - - 0.0
18/08:30am 24.0 26.4 20.8 82 2.1 SE 9 13 5 7 - - 0.0
18/08:20am 23.8 26.1 20.6 82 2.1 SE 9 13 5 7 - - 0.0
18/08:10am 23.6 25.5 20.6 83 2.0 SE 11 15 6 8 - - 0.0
18/08:00am 23.1 24.9 20.4 85 1.8 SSE 11 17 6 9 - - 0.0
18/07:50am 22.9 25.2 20.6 87 1.5 SSE 9 15 5 8 - - 0.0
18/07:40am 22.8 25.7 20.7 88 1.4 SSE 6 7 3 4 - - 0.0
18/07:30am 22.6 25.5 20.6 88 1.3 SSE 6 7 3 4 - - 0.0
18/07:20am 22.5 25.2 20.6 89 1.2 SSE 7 9 4 5 - - 0.0
18/07:10am 22.4 25.3 20.6 89 1.2 SSE 6 7 3 4 - - 0.0
18/07:00am 22.3 25.1 20.4 89 1.2 SE 6 9 3 5 - - 0.0
18/06:50am 22.2 24.7 20.2 88 1.3 SE 7 13 4 7 - - 0.0
18/06:40am 22.2 25.2 20.1 88 1.4 SE 4 6 2 3 - - 0.0
18/06:30am 22.3 24.9 20.1 87 1.4 SE 6 6 3 3 - - 0.0
18/06:20am 22.4 24.9 19.8 85 1.7 SSE 6 7 3 4 - - 0.0
18/06:10am 22.5 24.7 19.6 84 1.9 SE 7 9 4 5 - - 0.0
18/06:00am 22.4 24.6 19.2 82 2.0 SSE 6 7 3 4 - - 0.0
18/05:50am 22.2 24.7 19.0 82 2.0 SSE 4 6 2 3 - - 0.0
18/05:40am 22.0 24.6 19.3 85 1.7 SSE 4 6 2 3 - - 0.0
18/05:30am 21.8 24.4 20.1 90 1.1 SE 6 7 3 4 - - 0.0
18/05:20am 21.7 24.6 20.6 93 0.7 SE 6 7 3 4 - - 0.0
18/05:10am 21.7 25.0 20.7 94 0.7 ESE 4 6 2 3 - - 0.0
18/05:00am 21.8 25.6 20.9 95 0.6 ESE 2 4 1 2 - - 0.0
18/04:50am 22.0 25.5 21.1 95 0.6 E 4 6 2 3 - - 0.0
18/04:40am 22.2 26.0 21.0 93 0.8 E 2 4 1 2 - - 0.0
18/04:30am 22.3 26.1 21.0 92 0.9 ESE 2 4 1 2 - - 0.0
18/04:20am 22.3 26.2 21.2 93 0.7 ESE 2 4 1 2 - - 0.0
18/04:10am 22.4 26.1 21.4 94 0.7 E 4 6 2 3 - - 0.0
18/04:00am 22.6 26.6 21.4 93 0.8 ENE 2 4 1 2 - - 0.0
18/03:50am 22.6 26.5 21.2 92 0.9 NNW 2 2 1 1 - - 0.0
18/03:40am 22.7 26.7 21.3 92 0.9 NW 2 4 1 2 - - 0.0
18/03:30am 22.7 26.4 21.4 92 0.9 NW 4 4 2 2 - - 0.0
18/03:20am 22.7 26.7 21.4 92 0.9 WNW 2 4 1 2 - - 0.0
18/03:10am 22.8 26.5 21.5 92 0.9 NW 4 4 2 2 - - 0.0
18/03:00am 22.8 26.6 21.6 93 0.8 NW 4 4 2 2 - - 0.0
18/02:50am 22.8 26.9 21.6 93 0.8 NW 2 4 1 2 - - 0.0
18/02:40am 22.9 26.7 21.6 92 0.9 WNW 4 4 2 2 - - 0.0
18/02:30am 22.8 26.6 21.7 93 0.7 NW 4 4 2 2 - - 0.0
18/02:20am 22.9 27.1 21.7 93 0.8 NNW 2 4 1 2 - - 0.0
18/02:10am 22.9 26.7 21.7 93 0.8 NNW 4 4 2 2 - - 0.0
18/02:00am 22.9 26.7 21.7 93 0.8 NW 4 4 2 2 - - 0.0
18/01:50am 22.9 26.7 21.7 93 0.8 NW 4 6 2 3 - - 0.0
18/01:40am 22.9 26.7 21.7 93 0.8 WNW 4 6 2 3 - - 0.0
18/01:30am 22.9 26.7 21.7 93 0.8 WNW 4 6 2 3 - - 0.0
18/01:20am 23.0 26.8 21.6 92 0.9 W 4 4 2 2 - - 0.0
18/01:10am 23.0 26.8 21.7 92 0.9 NNW 4 4 2 2 - - 0.0
18/01:00am 23.0 27.1 21.6 92 0.9 NNE 2 4 1 2 - - 0.0
18/12:50am 23.1 26.9 21.6 91 1.0 N 4 4 2 2 - - 0.0
18/12:40am 23.0 26.7 21.5 91 1.0 NW 4 4 2 2 - - 0.0
18/12:30am 23.0 27.1 21.5 91 1.0 N 2 4 1 2 - - 0.0
18/12:20am 23.1 27.2 21.5 91 1.1 N 2 4 1 2 - - 0.0
18/12:10am 23.0 27.0 21.4 91 1.1 NW 2 2 1 1 - - 0.0
18/12:00am 23.1 27.1 21.4 90 1.1 NW 2 4 1 2 - - 0.0
 
Date/Time
EDT
Temp
°C
App
Temp
°C
Dew
Point
°C
Rel
Hum
%
Delta-T
°C
Wind Press
QNH
hPa
Press
MSL
hPa
Rain since
9am
mm
Dir  Spd
km/h
Gust
km/h
Spd
kts
Gust
kts
17/11:50pm 23.1 26.8 21.5 91 1.1 WNW 4 4 2 2 - - 0.0
17/11:40pm 23.1 27.2 21.6 91 1.0 S 2 4 1 2 - - 0.0
17/11:30pm 23.3 27.5 21.7 91 1.1 SSW 2 2 1 1 - - 0.0
17/11:20pm 23.3 27.1 21.6 90 1.1 NW 4 4 2 2 - - 0.0
17/11:10pm 23.4 27.2 21.6 90 1.2 NW 4 4 2 2 - - 0.0
17/11:00pm 23.4 27.5 21.5 89 1.3 NNW 2 4 1 2 - - 0.0
17/10:50pm 23.4 27.5 21.5 89 1.3 N 2 4 1 2 - - 0.0
17/10:40pm 23.5 27.6 21.5 88 1.3 N 2 4 1 2 - - 0.0
17/10:30pm 23.5 27.2 21.5 88 1.3 ENE 4 4 2 2 - - 0.0
17/10:20pm 23.6 27.4 21.6 88 1.3 ENE 4 4 2 2 - - 0.0
17/10:10pm 23.7 27.5 21.6 88 1.4 E 4 4 2 2 - - 0.0
17/10:00pm 23.8 27.5 21.5 87 1.5 E 4 4 2 2 - - 0.0
17/09:50pm 23.8 27.4 21.3 86 1.7 ENE 4 4 2 2 - - 0.0
17/09:40pm 23.8 27.5 21.5 87 1.5 E 4 4 2 2 - - 0.0
17/09:30pm 23.8 27.9 21.5 87 1.5 E 2 4 1 2 - - 0.0
17/09:20pm 23.9 27.7 21.6 87 1.5 E 4 6 2 3 - - 0.0
17/09:10pm 24.0 27.8 21.6 86 1.6 E 4 6 2 3 - - 0.0
17/09:00pm 24.1 28.6 21.5 85 1.7 CALM 0 2 0 1 - - 0.0
17/08:50pm 24.2 28.3 21.5 85 1.8 SSW 2 2 1 1 - - 0.0
17/08:40pm 24.2 28.1 21.2 83 2.0 E 2 2 1 1 - - 0.0
17/08:30pm 24.4 28.4 21.4 83 2.0 E 2 2 1 1 - - 0.0
17/08:20pm 24.5 28.5 21.4 83 2.1 E 2 2 1 1 - - 0.0
17/08:10pm 24.6 28.6 21.3 82 2.2 N 2 4 1 2 - - 0.0
17/08:00pm 24.7 28.3 21.2 81 2.3 E 4 6 2 3 - - 0.0
17/07:50pm 24.8 28.4 21.3 81 2.3 ENE 4 7 2 4 - - 0.0
17/07:40pm 24.9 27.9 21.3 80 2.4 ENE 7 9 4 5 - - 0.0
17/07:30pm 25.0 28.0 21.3 80 2.5 ENE 7 13 4 7 - - 0.0
17/07:20pm 25.1 27.8 21.3 79 2.5 ENE 9 11 5 6 - - 0.0
17/07:10pm 25.2 27.8 21.2 78 2.7 ENE 9 11 5 6 - - 0.0
17/07:00pm 25.3 27.6 21.4 79 2.6 ENE 11 13 6 7 - - 0.0
17/06:50pm 25.4 27.4 21.5 79 2.6 ENE 13 15 7 8 - - 0.0
17/06:40pm 25.5 27.9 21.6 79 2.6 ENE 11 13 6 7 - - 0.0
17/06:30pm 25.6 28.0 21.6 78 2.7 ENE 11 15 6 8 - - 0.0
17/06:20pm 25.7 27.7 21.6 78 2.7 ENE 13 17 7 9 - - 0.0
17/06:10pm 26.1 28.1 21.5 76 3.1 ENE 13 17 7 9 - - 0.0
17/06:00pm 26.2 28.2 21.5 75 3.1 ENE 13 15 7 8 - - 0.0
17/05:50pm 26.1 28.5 21.5 76 3.1 E 11 17 6 9 - - 0.0
17/05:40pm 25.9 27.8 21.4 76 3.0 ENE 13 17 7 9 - - 0.0
17/05:30pm 26.0 28.0 21.6 76 2.9 ENE 13 15 7 8 - - 0.0
17/05:20pm 26.2 28.6 21.6 76 3.1 ENE 11 13 6 7 - - 0.0
17/05:10pm 26.4 28.8 21.6 75 3.2 E 11 13 6 7 - - 0.0
17/05:00pm 26.7 29.2 21.8 74 3.3 ENE 11 13 6 7 - - 0.0
17/04:50pm 27.0 29.5 21.8 73 3.5 ENE 11 13 6 7 - - 0.0
17/04:40pm 27.3 29.8 21.8 72 3.7 ENE 11 15 6 8 - - 0.0
17/04:30pm 27.8 30.0 21.9 70 4.0 ENE 13 17 7 9 - - 0.0
17/04:20pm 28.4 31.0 21.9 68 4.4 ENE 11 13 6 7 - - 0.0
17/04:10pm 28.9 31.1 21.9 66 4.7 ENE 13 17 7 9 - - 0.0
17/04:00pm 29.6 31.9 22.0 63 5.2 E 13 17 7 9 - - 0.0
17/03:50pm 30.9 33.9 22.0 59 6.1 ENE 9 15 5 8 - - 0.0
17/03:40pm 31.8 35.3 22.2 56 6.6 E 7 11 4 6 - - 0.0
17/03:30pm 32.0 34.8 21.5 53 7.1 E 9 13 5 7 - - 0.0
17/03:20pm 32.3 35.2 21.7 53 7.2 SE 9 17 5 9 - - 0.0
17/03:10pm 32.9 34.4 18.1 41 9.6 SSW 7 11 4 6 - - 0.0
17/03:00pm 33.2 36.1 20.7 47 8.4 NNW 6 7 3 4 - - 0.0
17/02:50pm 32.9 34.6 18.5 42 9.4 NE 7 11 4 6 - - 0.0
17/02:40pm 32.7 35.2 19.9 46 8.5 NE 6 9 3 5 - - 0.0
17/02:30pm 32.3 34.7 19.6 47 8.4 ESE 6 11 3 6 - - 0.0
17/02:20pm 32.7 34.9 19.7 46 8.6 NNW 7 11 4 6 - - 0.0
17/02:10pm 32.8 35.0 19.2 44 9.0 WNW 6 7 3 4 - - 0.0
17/02:00pm 32.6 34.8 19.2 45 8.8 WNW 6 11 3 6 - - 0.0
17/01:50pm 31.8 33.9 18.9 46 8.5 WNW 6 11 3 6 - - 0.0
17/01:40pm 31.9 34.4 19.9 49 8.0 N 6 11 3 6 - - 0.0
17/01:30pm 31.2 34.2 20.9 54 6.9 NE 6 9 3 5 - - 0.0
17/01:20pm 30.7 32.6 19.8 52 7.2 NNE 9 13 5 7 - - 0.0
17/01:10pm 31.1 33.8 20.7 54 7.0 NE 7 11 4 6 - - 0.0
17/01:00pm 30.9 33.1 20.3 53 7.1 NNE 9 13 5 7 - - 0.0
17/12:50pm 30.5 33.1 20.0 53 7.0 NNE 6 13 3 7 - - 0.0

Other formats

Comma delimited format used in spreadsheet applications
http://www.bom.gov.au/fwo/IDN60801/IDN60801.99071.axf

JavaScript Object Notation format (JSON) in row-major order
http://www.bom.gov.au/fwo/IDN60801/IDN60801.99071.json

Data quality

Most of these data are generated automatically and are frequently updated. Quality checks on data are not normally performed. It is possible for incorrect values to appear. Refer to information at About Latest Weather Observations and please check the disclaimer before using these data.